sensor_id;sensor_type;location;lat;lon;timestamp;pressure;altitude;pressure_sealevel;temperature
82633;BMP280;72302;51.444;3.582;2023-08-24T00:00:31;101782.94;;;22.17
82633;BMP280;72302;51.444;3.582;2023-08-24T00:02:57;101776.59;;;23.50
82633;BMP280;72302;51.444;3.582;2023-08-24T00:05:23;101792.81;;;20.96
82633;BMP280;72302;51.444;3.582;2023-08-24T00:07:49;101790.19;;;20.38
82633;BMP280;72302;51.444;3.582;2023-08-24T00:10:14;101780.63;;;21.03
82633;BMP280;72302;51.444;3.582;2023-08-24T00:12:40;101785.31;;;20.45
82633;BMP280;72302;51.444;3.582;2023-08-24T00:15:08;101777.94;;;21.26
82633;BMP280;72302;51.444;3.582;2023-08-24T00:17:34;101773.31;;;22.45
82633;BMP280;72302;51.444;3.582;2023-08-24T00:19:59;101769.63;;;22.88
82633;BMP280;72302;51.444;3.582;2023-08-24T00:22:26;101780.88;;;20.67
82633;BMP280;72302;51.444;3.582;2023-08-24T00:24:52;101781.34;;;20.61
82633;BMP280;72302;51.444;3.582;2023-08-24T00:27:17;101771.84;;;21.35
82633;BMP280;72302;51.444;3.582;2023-08-24T00:29:42;101756.50;;;21.26
82633;BMP280;72302;51.444;3.582;2023-08-24T00:32:08;101751.50;;;21.76
82633;BMP280;72302;51.444;3.582;2023-08-24T00:34:33;101741.28;;;22.64
82633;BMP280;72302;51.444;3.582;2023-08-24T00:36:59;101760.00;;;22.54
82633;BMP280;72302;51.444;3.582;2023-08-24T00:39:24;101771.41;;;22.36
82633;BMP280;72302;51.444;3.582;2023-08-24T00:41:49;101767.56;;;21.86
82633;BMP280;72302;51.444;3.582;2023-08-24T00:44:15;101754.81;;;22.93
82633;BMP280;72302;51.444;3.582;2023-08-24T00:46:40;101764.50;;;22.23
82633;BMP280;72302;51.444;3.582;2023-08-24T00:49:06;101777.53;;;22.27
82633;BMP280;72302;51.444;3.582;2023-08-24T00:51:32;101766.47;;;23.72
82633;BMP280;72302;51.444;3.582;2023-08-24T00:53:58;101755.41;;;23.16
82633;BMP280;72302;51.444;3.582;2023-08-24T00:56:23;101746.97;;;23.01
82633;BMP280;72302;51.444;3.582;2023-08-24T00:58:50;101731.94;;;23.38
82633;BMP280;72302;51.444;3.582;2023-08-24T01:01:17;101724.34;;;22.52
82633;BMP280;72302;51.444;3.582;2023-08-24T01:03:43;101719.63;;;22.14
82633;BMP280;72302;51.444;3.582;2023-08-24T01:06:08;101733.41;;;23.52
82633;BMP280;72302;51.444;3.582;2023-08-24T01:08:33;101746.25;;;21.74
82633;BMP280;72302;51.444;3.582;2023-08-24T01:11:11;101722.38;;;23.54
82633;BMP280;72302;51.444;3.582;2023-08-24T01:16:45;101695.84;;;20.92
82633;BMP280;72302;51.444;3.582;2023-08-24T01:20:04;101672.53;;;20.03
82633;BMP280;72302;51.444;3.582;2023-08-24T01:24:47;101642.06;;;21.27
82633;BMP280;72302;51.444;3.582;2023-08-24T01:27:18;101629.56;;;22.81
82633;BMP280;72302;51.444;3.582;2023-08-24T01:29:44;101644.47;;;22.03
82633;BMP280;72302;51.444;3.582;2023-08-24T01:32:10;101658.66;;;22.76
82633;BMP280;72302;51.444;3.582;2023-08-24T01:34:37;101666.59;;;21.85
82633;BMP280;72302;51.444;3.582;2023-08-24T01:37:05;101675.31;;;20.35
82633;BMP280;72302;51.444;3.582;2023-08-24T01:39:46;101659.47;;;20.45
82633;BMP280;72302;51.444;3.582;2023-08-24T01:42:18;101633.75;;;20.97
82633;BMP280;72302;51.444;3.582;2023-08-24T01:44:47;101649.34;;;20.14
82633;BMP280;72302;51.444;3.582;2023-08-24T01:47:15;101629.19;;;20.66
82633;BMP280;72302;51.444;3.582;2023-08-24T01:49:41;101620.59;;;20.94
82633;BMP280;72302;51.444;3.582;2023-08-24T01:52:09;101612.97;;;21.64
82633;BMP280;72302;51.444;3.582;2023-08-24T01:54:34;101610.16;;;22.38
82633;BMP280;72302;51.444;3.582;2023-08-24T01:57:00;101625.06;;;21.69
82633;BMP280;72302;51.444;3.582;2023-08-24T01:59:25;101612.47;;;21.80
82633;BMP280;72302;51.444;3.582;2023-08-24T02:01:51;101626.94;;;20.94
82633;BMP280;72302;51.444;3.582;2023-08-24T02:04:16;101619.50;;;21.40
82633;BMP280;72302;51.444;3.582;2023-08-24T02:06:41;101621.94;;;21.95
82633;BMP280;72302;51.444;3.582;2023-08-24T02:09:06;101627.38;;;22.35
82633;BMP280;72302;51.444;3.582;2023-08-24T02:11:32;101619.00;;;21.03
82633;BMP280;72302;51.444;3.582;2023-08-24T02:13:57;101596.06;;;22.25
82633;BMP280;72302;51.444;3.582;2023-08-24T02:16:23;101590.56;;;22.26
82633;BMP280;72302;51.444;3.582;2023-08-24T02:18:48;101598.38;;;21.99
82633;BMP280;72302;51.444;3.582;2023-08-24T02:21:13;101588.34;;;22.71
82633;BMP280;72302;51.444;3.582;2023-08-24T02:23:39;101597.41;;;20.51
82633;BMP280;72302;51.444;3.582;2023-08-24T02:26:05;101575.44;;;22.25
82633;BMP280;72302;51.444;3.582;2023-08-24T02:28:32;101584.78;;;21.38
82633;BMP280;72302;51.444;3.582;2023-08-24T02:31:02;101589.72;;;21.54
82633;BMP280;72302;51.444;3.582;2023-08-24T02:33:27;101597.72;;;21.75
82633;BMP280;72302;51.444;3.582;2023-08-24T02:35:53;101605.97;;;21.41
82633;BMP280;72302;51.444;3.582;2023-08-24T02:38:18;101605.47;;;21.15
82633;BMP280;72302;51.444;3.582;2023-08-24T02:40:44;101600.00;;;22.81
82633;BMP280;72302;51.444;3.582;2023-08-24T02:43:09;101605.25;;;22.83
82633;BMP280;72302;51.444;3.582;2023-08-24T02:45:35;101601.84;;;23.10
82633;BMP280;72302;51.444;3.582;2023-08-24T02:48:00;101604.72;;;21.56
82633;BMP280;72302;51.444;3.582;2023-08-24T02:50:26;101593.50;;;22.64
82633;BMP280;72302;51.444;3.582;2023-08-24T02:52:51;101597.81;;;21.21
82633;BMP280;72302;51.444;3.582;2023-08-24T02:55:17;101599.75;;;20.66
82633;BMP280;72302;51.444;3.582;2023-08-24T02:57:42;101604.06;;;20.11
82633;BMP280;72302;51.444;3.582;2023-08-24T03:00:08;101595.34;;;21.92
82633;BMP280;72302;51.444;3.582;2023-08-24T03:02:35;101604.97;;;23.44
82633;BMP280;72302;51.444;3.582;2023-08-24T03:05:01;101594.53;;;23.21
82633;BMP280;72302;51.444;3.582;2023-08-24T03:07:27;101593.94;;;22.88
82633;BMP280;72302;51.444;3.582;2023-08-24T03:09:52;101599.75;;;23.43
82633;BMP280;72302;51.444;3.582;2023-08-24T03:12:18;101584.34;;;23.54
82633;BMP280;72302;51.444;3.582;2023-08-24T03:14:43;101587.09;;;23.34
82633;BMP280;72302;51.444;3.582;2023-08-24T03:17:08;101584.06;;;23.75
82633;BMP280;72302;51.444;3.582;2023-08-24T03:19:34;101584.53;;;23.80
82633;BMP280;72302;51.444;3.582;2023-08-24T03:21:59;101585.22;;;23.82
82633;BMP280;72302;51.444;3.582;2023-08-24T03:24:24;101587.41;;;23.40
82633;BMP280;72302;51.444;3.582;2023-08-24T03:26:50;101582.66;;;23.72
82633;BMP280;72302;51.444;3.582;2023-08-24T03:29:15;101586.22;;;23.91
82633;BMP280;72302;51.444;3.582;2023-08-24T03:31:41;101587.34;;;23.88
82633;BMP280;72302;51.444;3.582;2023-08-24T03:34:06;101589.50;;;24.13
82633;BMP280;72302;51.444;3.582;2023-08-24T03:36:31;101577.63;;;24.24
82633;BMP280;72302;51.444;3.582;2023-08-24T03:38:56;101579.72;;;24.30
82633;BMP280;72302;51.444;3.582;2023-08-24T03:41:22;101590.31;;;23.28
82633;BMP280;72302;51.444;3.582;2023-08-24T03:43:47;101585.31;;;23.62
82633;BMP280;72302;51.444;3.582;2023-08-24T03:46:12;101589.34;;;23.95
82633;BMP280;72302;51.444;3.582;2023-08-24T03:48:38;101591.09;;;23.39
82633;BMP280;72302;51.444;3.582;2023-08-24T03:51:03;101584.63;;;23.70
82633;BMP280;72302;51.444;3.582;2023-08-24T03:53:28;101574.47;;;23.92
82633;BMP280;72302;51.444;3.582;2023-08-24T03:55:54;101570.22;;;23.89
82633;BMP280;72302;51.444;3.582;2023-08-24T03:58:19;101562.53;;;23.75
82633;BMP280;72302;51.444;3.582;2023-08-24T04:00:45;101561.25;;;23.13
82633;BMP280;72302;51.444;3.582;2023-08-24T04:03:11;101569.56;;;21.28
82633;BMP280;72302;51.444;3.582;2023-08-24T04:05:36;101567.13;;;20.16
82633;BMP280;72302;51.444;3.582;2023-08-24T04:08:02;101559.84;;;21.69
82633;BMP280;72302;51.444;3.582;2023-08-24T04:10:28;101570.06;;;20.24
82633;BMP280;72302;51.444;3.582;2023-08-24T04:12:54;101558.59;;;20.11
82633;BMP280;72302;51.444;3.582;2023-08-24T04:15:19;101542.34;;;21.43
82633;BMP280;72302;51.444;3.582;2023-08-24T04:17:45;101545.97;;;20.35
82633;BMP280;72302;51.444;3.582;2023-08-24T04:20:11;101535.72;;;20.63
82633;BMP280;72302;51.444;3.582;2023-08-24T04:22:36;101535.13;;;21.55
82633;BMP280;72302;51.444;3.582;2023-08-24T04:25:02;101541.47;;;19.91
82633;BMP280;72302;51.444;3.582;2023-08-24T04:27:27;101525.50;;;20.02
82633;BMP280;72302;51.444;3.582;2023-08-24T04:29:53;101515.66;;;22.03
82633;BMP280;72302;51.444;3.582;2023-08-24T04:32:18;101514.81;;;21.41
82633;BMP280;72302;51.444;3.582;2023-08-24T04:34:43;101514.47;;;21.97
82633;BMP280;72302;51.444;3.582;2023-08-24T04:37:09;101519.75;;;21.04
82633;BMP280;72302;51.444;3.582;2023-08-24T04:39:34;101518.00;;;21.97
82633;BMP280;72302;51.444;3.582;2023-08-24T04:42:00;101530.09;;;20.66
82633;BMP280;72302;51.444;3.582;2023-08-24T04:44:25;101518.63;;;21.59
82633;BMP280;72302;51.444;3.582;2023-08-24T04:46:51;101511.84;;;20.92
82633;BMP280;72302;51.444;3.582;2023-08-24T04:49:16;101524.09;;;19.96
82633;BMP280;72302;51.444;3.582;2023-08-24T04:51:42;101510.50;;;21.50
82633;BMP280;72302;51.444;3.582;2023-08-24T04:54:07;101509.47;;;21.61
82633;BMP280;72302;51.444;3.582;2023-08-24T04:56:32;101506.53;;;21.64
82633;BMP280;72302;51.444;3.582;2023-08-24T04:58:58;101503.03;;;21.95
82633;BMP280;72302;51.444;3.582;2023-08-24T05:01:26;101505.03;;;20.67
82633;BMP280;72302;51.444;3.582;2023-08-24T05:03:53;101520.06;;;20.25
82633;BMP280;72302;51.444;3.582;2023-08-24T05:06:19;101521.78;;;21.33
82633;BMP280;72302;51.444;3.582;2023-08-24T05:08:44;101504.81;;;22.74
82633;BMP280;72302;51.444;3.582;2023-08-24T05:11:11;101512.81;;;20.91
82633;BMP280;72302;51.444;3.582;2023-08-24T05:13:37;101497.50;;;20.61
82633;BMP280;72302;51.444;3.582;2023-08-24T05:16:03;101494.06;;;22.05
82633;BMP280;72302;51.444;3.582;2023-08-24T05:18:28;101488.06;;;21.20
82633;BMP280;72302;51.444;3.582;2023-08-24T05:20:53;101481.59;;;21.12
82633;BMP280;72302;51.444;3.582;2023-08-24T05:23:19;101481.84;;;21.30
82633;BMP280;72302;51.444;3.582;2023-08-24T05:25:45;101478.59;;;20.84
82633;BMP280;72302;51.444;3.582;2023-08-24T05:28:10;101473.03;;;21.17
82633;BMP280;72302;51.444;3.582;2023-08-24T05:30:35;101463.91;;;22.12
82633;BMP280;72302;51.444;3.582;2023-08-24T05:33:00;101451.31;;;23.10
82633;BMP280;72302;51.444;3.582;2023-08-24T05:35:27;101455.13;;;23.17
82633;BMP280;72302;51.444;3.582;2023-08-24T05:37:52;101456.94;;;22.59
82633;BMP280;72302;51.444;3.582;2023-08-24T05:40:18;101455.41;;;22.37
82633;BMP280;72302;51.444;3.582;2023-08-24T05:42:43;101447.78;;;23.28
82633;BMP280;72302;51.444;3.582;2023-08-24T05:45:09;101453.78;;;23.41
82633;BMP280;72302;51.444;3.582;2023-08-24T05:47:34;101454.16;;;24.11
82633;BMP280;72302;51.444;3.582;2023-08-24T05:49:59;101445.91;;;24.31
82633;BMP280;72302;51.444;3.582;2023-08-24T05:52:25;101467.72;;;23.16
82633;BMP280;72302;51.444;3.582;2023-08-24T05:54:50;101474.47;;;23.59
82633;BMP280;72302;51.444;3.582;2023-08-24T05:57:15;101479.84;;;24.95
82633;BMP280;72302;51.444;3.582;2023-08-24T05:59:41;101485.13;;;25.57
82633;BMP280;72302;51.444;3.582;2023-08-24T06:02:06;101495.97;;;24.78
82633;BMP280;72302;51.444;3.582;2023-08-24T06:04:32;101485.06;;;25.23
82633;BMP280;72302;51.444;3.582;2023-08-24T06:06:57;101555.03;;;24.44
82633;BMP280;72302;51.444;3.582;2023-08-24T06:09:22;101534.88;;;25.55
82633;BMP280;72302;51.444;3.582;2023-08-24T06:11:48;101522.63;;;26.11
82633;BMP280;72302;51.444;3.582;2023-08-24T06:14:13;101510.25;;;25.41
82633;BMP280;72302;51.444;3.582;2023-08-24T06:16:38;101508.13;;;26.12
82633;BMP280;72302;51.444;3.582;2023-08-24T06:19:03;101476.72;;;26.11
82633;BMP280;72302;51.444;3.582;2023-08-24T06:21:29;101483.91;;;25.86
82633;BMP280;72302;51.444;3.582;2023-08-24T06:23:55;101467.09;;;26.34
82633;BMP280;72302;51.444;3.582;2023-08-24T06:26:20;101452.94;;;26.65
82633;BMP280;72302;51.444;3.582;2023-08-24T06:28:46;101461.69;;;26.59
82633;BMP280;72302;51.444;3.582;2023-08-24T06:31:12;101465.75;;;26.63
82633;BMP280;72302;51.444;3.582;2023-08-24T06:33:38;101464.59;;;26.40
82633;BMP280;72302;51.444;3.582;2023-08-24T06:36:04;101470.94;;;24.85
82633;BMP280;72302;51.444;3.582;2023-08-24T06:38:33;101471.56;;;25.49
82633;BMP280;72302;51.444;3.582;2023-08-24T06:40:59;101469.16;;;25.03
82633;BMP280;72302;51.444;3.582;2023-08-24T06:43:28;101472.44;;;24.17
82633;BMP280;72302;51.444;3.582;2023-08-24T06:45:56;101464.41;;;24.52
82633;BMP280;72302;51.444;3.582;2023-08-24T06:48:21;101460.47;;;25.26
82633;BMP280;72302;51.444;3.582;2023-08-24T06:50:47;101457.25;;;24.34
82633;BMP280;72302;51.444;3.582;2023-08-24T06:53:12;101459.34;;;24.40
82633;BMP280;72302;51.444;3.582;2023-08-24T06:55:40;101462.28;;;23.55
82633;BMP280;72302;51.444;3.582;2023-08-24T06:58:05;101465.09;;;23.72
82633;BMP280;72302;51.444;3.582;2023-08-24T07:00:31;101467.06;;;24.26
82633;BMP280;72302;51.444;3.582;2023-08-24T07:02:57;101454.75;;;24.68
82633;BMP280;72302;51.444;3.582;2023-08-24T07:05:25;101460.00;;;23.60
82633;BMP280;72302;51.444;3.582;2023-08-24T07:07:51;101452.88;;;24.24
82633;BMP280;72302;51.444;3.582;2023-08-24T07:10:17;101447.28;;;23.80
82633;BMP280;72302;51.444;3.582;2023-08-24T07:12:43;101436.94;;;24.39
82633;BMP280;72302;51.444;3.582;2023-08-24T07:15:14;101435.03;;;24.23
82633;BMP280;72302;51.444;3.582;2023-08-24T07:17:39;101438.91;;;23.83
82633;BMP280;72302;51.444;3.582;2023-08-24T07:20:05;101452.44;;;23.26
82633;BMP280;72302;51.444;3.582;2023-08-24T07:22:32;101450.81;;;22.87
82633;BMP280;72302;51.444;3.582;2023-08-24T07:24:58;101445.34;;;23.07
82633;BMP280;72302;51.444;3.582;2023-08-24T07:27:23;101447.41;;;23.51
82633;BMP280;72302;51.444;3.582;2023-08-24T07:29:49;101440.81;;;24.28
82633;BMP280;72302;51.444;3.582;2023-08-24T07:32:14;101441.41;;;23.29
82633;BMP280;72302;51.444;3.582;2023-08-24T07:34:40;101421.81;;;24.29
82633;BMP280;72302;51.444;3.582;2023-08-24T07:37:06;101416.66;;;24.81
82633;BMP280;72302;51.444;3.582;2023-08-24T07:39:32;101416.63;;;24.00
82633;BMP280;72302;51.444;3.582;2023-08-24T07:41:58;101411.88;;;24.75
82633;BMP280;72302;51.444;3.582;2023-08-24T07:44:24;101412.41;;;25.22
82633;BMP280;72302;51.444;3.582;2023-08-24T07:46:49;101433.03;;;24.60
82633;BMP280;72302;51.444;3.582;2023-08-24T07:49:15;101431.44;;;24.32
82633;BMP280;72302;51.444;3.582;2023-08-24T07:51:40;101423.78;;;24.72
82633;BMP280;72302;51.444;3.582;2023-08-24T07:54:08;101435.16;;;24.31
82633;BMP280;72302;51.444;3.582;2023-08-24T07:56:34;101423.66;;;24.74
82633;BMP280;72302;51.444;3.582;2023-08-24T07:58:59;101419.03;;;24.48
82633;BMP280;72302;51.444;3.582;2023-08-24T08:01:25;101422.38;;;24.95
82633;BMP280;72302;51.444;3.582;2023-08-24T08:03:50;101414.44;;;24.93
82633;BMP280;72302;51.444;3.582;2023-08-24T08:06:15;101413.69;;;24.03
82633;BMP280;72302;51.444;3.582;2023-08-24T08:08:41;101406.66;;;24.90
82633;BMP280;72302;51.444;3.582;2023-08-24T08:11:06;101409.47;;;24.36
82633;BMP280;72302;51.444;3.582;2023-08-24T08:13:32;101408.28;;;25.01
82633;BMP280;72302;51.444;3.582;2023-08-24T08:16:02;101410.78;;;24.23
82633;BMP280;72302;51.444;3.582;2023-08-24T08:18:28;101409.59;;;24.97
82633;BMP280;72302;51.444;3.582;2023-08-24T08:20:54;101413.56;;;25.02
82633;BMP280;72302;51.444;3.582;2023-08-24T08:23:19;101407.81;;;24.88
82633;BMP280;72302;51.444;3.582;2023-08-24T08:25:45;101419.34;;;25.07
82633;BMP280;72302;51.444;3.582;2023-08-24T08:28:10;101406.84;;;25.06
82633;BMP280;72302;51.444;3.582;2023-08-24T08:30:36;101416.19;;;24.49
82633;BMP280;72302;51.444;3.582;2023-08-24T08:33:01;101416.47;;;25.08
82633;BMP280;72302;51.444;3.582;2023-08-24T08:35:27;101418.44;;;24.89
82633;BMP280;72302;51.444;3.582;2023-08-24T08:37:52;101421.75;;;25.01
82633;BMP280;72302;51.444;3.582;2023-08-24T08:40:19;101418.72;;;24.69
82633;BMP280;72302;51.444;3.582;2023-08-24T08:42:44;101417.31;;;25.09
82633;BMP280;72302;51.444;3.582;2023-08-24T08:45:12;101410.47;;;25.14
82633;BMP280;72302;51.444;3.582;2023-08-24T08:47:38;101407.31;;;25.19
82633;BMP280;72302;51.444;3.582;2023-08-24T08:50:04;101401.53;;;25.31
82633;BMP280;72302;51.444;3.582;2023-08-24T08:52:31;101401.50;;;24.97
82633;BMP280;72302;51.444;3.582;2023-08-24T08:55:00;101393.75;;;25.11
82633;BMP280;72302;51.444;3.582;2023-08-24T08:57:25;101398.19;;;24.85
82633;BMP280;72302;51.444;3.582;2023-08-24T08:59:55;101398.53;;;25.17
82633;BMP280;72302;51.444;3.582;2023-08-24T09:02:21;101407.94;;;25.30
82633;BMP280;72302;51.444;3.582;2023-08-24T09:04:50;101398.44;;;25.26
82633;BMP280;72302;51.444;3.582;2023-08-24T09:07:15;101382.28;;;25.43
82633;BMP280;72302;51.444;3.582;2023-08-24T09:09:41;101390.47;;;24.64
82633;BMP280;72302;51.444;3.582;2023-08-24T09:12:07;101392.75;;;24.68
82633;BMP280;72302;51.444;3.582;2023-08-24T09:14:34;101384.03;;;25.18
82633;BMP280;72302;51.444;3.582;2023-08-24T09:17:00;101377.34;;;25.22
82633;BMP280;72302;51.444;3.582;2023-08-24T09:19:30;101370.97;;;24.79
82633;BMP280;72302;51.444;3.582;2023-08-24T09:22:01;101345.09;;;24.59
82633;BMP280;72302;51.444;3.582;2023-08-24T09:24:30;101355.00;;;25.12
82633;BMP280;72302;51.444;3.582;2023-08-24T09:26:56;101374.50;;;25.06
82633;BMP280;72302;51.444;3.582;2023-08-24T09:29:21;101394.75;;;25.10
82633;BMP280;72302;51.444;3.582;2023-08-24T09:31:50;101422.66;;;24.30
82633;BMP280;72302;51.444;3.582;2023-08-24T09:34:22;101424.34;;;23.49
82633;BMP280;72302;51.444;3.582;2023-08-24T09:36:51;101408.16;;;24.04
82633;BMP280;72302;51.444;3.582;2023-08-24T09:39:17;101414.81;;;23.73
82633;BMP280;72302;51.444;3.582;2023-08-24T09:42:00;101392.97;;;23.94
82633;BMP280;72302;51.444;3.582;2023-08-24T09:44:29;101399.66;;;23.72
82633;BMP280;72302;51.444;3.582;2023-08-24T09:46:54;101382.25;;;23.75
82633;BMP280;72302;51.444;3.582;2023-08-24T09:49:20;101363.22;;;24.40
82633;BMP280;72302;51.444;3.582;2023-08-24T09:51:45;101348.53;;;24.61
82633;BMP280;72302;51.444;3.582;2023-08-24T09:54:13;101326.28;;;25.03
82633;BMP280;72302;51.444;3.582;2023-08-24T09:56:41;101329.44;;;24.46
82633;BMP280;72302;51.444;3.582;2023-08-24T09:59:13;101322.22;;;24.73
82633;BMP280;72302;51.444;3.582;2023-08-24T10:01:43;101313.91;;;24.57
82633;BMP280;72302;51.444;3.582;2023-08-24T10:04:09;101307.25;;;25.04
82633;BMP280;72302;51.444;3.582;2023-08-24T10:06:38;101300.97;;;24.87
82633;BMP280;72302;51.444;3.582;2023-08-24T10:09:07;101305.75;;;24.93
82633;BMP280;72302;51.444;3.582;2023-08-24T10:11:35;101297.28;;;24.71
82633;BMP280;72302;51.444;3.582;2023-08-24T10:14:13;101276.53;;;25.23
82633;BMP280;72302;51.444;3.582;2023-08-24T10:16:41;101276.97;;;24.76
82633;BMP280;72302;51.444;3.582;2023-08-24T10:19:08;101266.66;;;24.45
82633;BMP280;72302;51.444;3.582;2023-08-24T10:21:34;101263.72;;;24.13
82633;BMP280;72302;51.444;3.582;2023-08-24T10:24:04;101255.56;;;24.75
82633;BMP280;72302;51.444;3.582;2023-08-24T10:26:32;101254.63;;;24.83
82633;BMP280;72302;51.444;3.582;2023-08-24T10:28:58;101268.59;;;25.38
82633;BMP280;72302;51.444;3.582;2023-08-24T10:31:24;101256.03;;;25.47
82633;BMP280;72302;51.444;3.582;2023-08-24T10:33:50;101260.09;;;25.08
82633;BMP280;72302;51.444;3.582;2023-08-24T10:36:16;101260.06;;;25.25
82633;BMP280;72302;51.444;3.582;2023-08-24T10:38:43;101254.25;;;25.55
82633;BMP280;72302;51.444;3.582;2023-08-24T10:41:09;101254.63;;;25.43
82633;BMP280;72302;51.444;3.582;2023-08-24T10:43:36;101242.34;;;25.23
82633;BMP280;72302;51.444;3.582;2023-08-24T10:46:02;101219.28;;;25.78
82633;BMP280;72302;51.444;3.582;2023-08-24T10:51:26;101217.25;;;26.05
82633;BMP280;72302;51.444;3.582;2023-08-24T10:53:59;101217.50;;;25.62
82633;BMP280;72302;51.444;3.582;2023-08-24T10:59:15;101209.84;;;26.15
82633;BMP280;72302;51.444;3.582;2023-08-24T11:04:18;101202.44;;;25.84
82633;BMP280;72302;51.444;3.582;2023-08-24T11:07:00;101206.06;;;25.18
82633;BMP280;72302;51.444;3.582;2023-08-24T11:09:47;101214.16;;;25.18
82633;BMP280;72302;51.444;3.582;2023-08-24T11:12:13;101210.84;;;25.81
82633;BMP280;72302;51.444;3.582;2023-08-24T11:14:50;101220.13;;;26.04
82633;BMP280;72302;51.444;3.582;2023-08-24T11:17:24;101231.75;;;25.79
82633;BMP280;72302;51.444;3.582;2023-08-24T11:19:54;101255.59;;;25.34
82633;BMP280;72302;51.444;3.582;2023-08-24T11:22:20;101261.84;;;25.34
82633;BMP280;72302;51.444;3.582;2023-08-24T11:24:47;101249.56;;;25.65
82633;BMP280;72302;51.444;3.582;2023-08-24T11:27:12;101249.13;;;25.77
82633;BMP280;72302;51.444;3.582;2023-08-24T11:29:38;101252.34;;;25.80
82633;BMP280;72302;51.444;3.582;2023-08-24T11:32:08;101265.50;;;26.00
82633;BMP280;72302;51.444;3.582;2023-08-24T11:34:34;101267.84;;;25.46
82633;BMP280;72302;51.444;3.582;2023-08-24T11:37:01;101274.19;;;25.87
82633;BMP280;72302;51.444;3.582;2023-08-24T11:39:26;101268.88;;;26.02
82633;BMP280;72302;51.444;3.582;2023-08-24T11:42:01;101264.16;;;25.79
82633;BMP280;72302;51.444;3.582;2023-08-24T11:44:45;101274.09;;;24.78
82633;BMP280;72302;51.444;3.582;2023-08-24T11:47:14;101275.16;;;25.36
82633;BMP280;72302;51.444;3.582;2023-08-24T11:49:39;101270.13;;;26.15
82633;BMP280;72302;51.444;3.582;2023-08-24T11:52:05;101279.31;;;25.72
82633;BMP280;72302;51.444;3.582;2023-08-24T11:54:33;101271.41;;;26.04
82633;BMP280;72302;51.444;3.582;2023-08-24T11:56:59;101280.94;;;25.90
82633;BMP280;72302;51.444;3.582;2023-08-24T11:59:25;101274.84;;;25.39
82633;BMP280;72302;51.444;3.582;2023-08-24T12:01:51;101276.59;;;25.72
82633;BMP280;72302;51.444;3.582;2023-08-24T12:04:18;101286.75;;;25.95
82633;BMP280;72302;51.444;3.582;2023-08-24T12:06:44;101273.59;;;26.41
82633;BMP280;72302;51.444;3.582;2023-08-24T12:09:09;101250.78;;;26.35
82633;BMP280;72302;51.444;3.582;2023-08-24T12:11:36;101247.25;;;26.35
82633;BMP280;72302;51.444;3.582;2023-08-24T12:14:01;101241.69;;;25.96
82633;BMP280;72302;51.444;3.582;2023-08-24T12:16:30;101231.72;;;26.45
82633;BMP280;72302;51.444;3.582;2023-08-24T12:18:57;101228.31;;;26.27
82633;BMP280;72302;51.444;3.582;2023-08-24T12:21:29;101220.22;;;26.35
82633;BMP280;72302;51.444;3.582;2023-08-24T12:24:05;101218.81;;;26.15
82633;BMP280;72302;51.444;3.582;2023-08-24T12:26:31;101218.88;;;26.39
82633;BMP280;72302;51.444;3.582;2023-08-24T12:29:02;101216.97;;;26.72
82633;BMP280;72302;51.444;3.582;2023-08-24T12:31:28;101229.75;;;26.62
82633;BMP280;72302;51.444;3.582;2023-08-24T12:34:07;101211.69;;;26.63
82633;BMP280;72302;51.444;3.582;2023-08-24T12:36:37;101216.63;;;26.75
82633;BMP280;72302;51.444;3.582;2023-08-24T12:39:03;101214.34;;;26.47
82633;BMP280;72302;51.444;3.582;2023-08-24T12:41:30;101208.19;;;26.78
82633;BMP280;72302;51.444;3.582;2023-08-24T12:43:55;101213.94;;;26.91
82633;BMP280;72302;51.444;3.582;2023-08-24T12:46:21;101215.69;;;26.51
82633;BMP280;72302;51.444;3.582;2023-08-24T12:48:46;101215.78;;;26.75
82633;BMP280;72302;51.444;3.582;2023-08-24T12:51:11;101206.16;;;26.80
82633;BMP280;72302;51.444;3.582;2023-08-24T12:53:37;101208.34;;;26.69
82633;BMP280;72302;51.444;3.582;2023-08-24T12:56:02;101202.94;;;26.84
82633;BMP280;72302;51.444;3.582;2023-08-24T12:58:28;101210.00;;;26.62
82633;BMP280;72302;51.444;3.582;2023-08-24T13:00:53;101205.13;;;26.89
82633;BMP280;72302;51.444;3.582;2023-08-24T13:03:18;101205.66;;;26.84
82633;BMP280;72302;51.444;3.582;2023-08-24T13:05:44;101210.72;;;26.87
82633;BMP280;72302;51.444;3.582;2023-08-24T13:08:10;101202.78;;;26.86
82633;BMP280;72302;51.444;3.582;2023-08-24T13:10:35;101204.28;;;26.96
82633;BMP280;72302;51.444;3.582;2023-08-24T13:13:02;101200.91;;;27.02
82633;BMP280;72302;51.444;3.582;2023-08-24T13:15:28;101207.00;;;26.88
82633;BMP280;72302;51.444;3.582;2023-08-24T13:17:53;101202.59;;;26.87
82633;BMP280;72302;51.444;3.582;2023-08-24T13:20:18;101196.66;;;26.68
82633;BMP280;72302;51.444;3.582;2023-08-24T13:22:44;101188.56;;;26.92
82633;BMP280;72302;51.444;3.582;2023-08-24T13:25:10;101188.06;;;26.80
82633;BMP280;72302;51.444;3.582;2023-08-24T13:27:35;101187.22;;;26.72
82633;BMP280;72302;51.444;3.582;2023-08-24T13:30:01;101179.13;;;26.80
82633;BMP280;72302;51.444;3.582;2023-08-24T13:32:26;101180.44;;;26.60
82633;BMP280;72302;51.444;3.582;2023-08-24T13:34:52;101168.94;;;26.66
82633;BMP280;72302;51.444;3.582;2023-08-24T13:37:17;101172.50;;;26.59
82633;BMP280;72302;51.444;3.582;2023-08-24T13:39:43;101177.34;;;26.48
82633;BMP280;72302;51.444;3.582;2023-08-24T13:42:08;101178.78;;;26.75
82633;BMP280;72302;51.444;3.582;2023-08-24T13:44:34;101174.06;;;26.69
82633;BMP280;72302;51.444;3.582;2023-08-24T13:46:59;101176.94;;;26.76
82633;BMP280;72302;51.444;3.582;2023-08-24T13:49:24;101167.78;;;26.61
82633;BMP280;72302;51.444;3.582;2023-08-24T13:51:50;101167.59;;;26.62
82633;BMP280;72302;51.444;3.582;2023-08-24T13:54:19;101163.00;;;26.39
82633;BMP280;72302;51.444;3.582;2023-08-24T13:56:47;101162.03;;;26.64
82633;BMP280;72302;51.444;3.582;2023-08-24T13:59:13;101161.31;;;26.54
82633;BMP280;72302;51.444;3.582;2023-08-24T14:01:39;101147.13;;;26.44
82633;BMP280;72302;51.444;3.582;2023-08-24T14:04:05;101144.44;;;26.44
82633;BMP280;72302;51.444;3.582;2023-08-24T14:06:31;101135.28;;;26.30